sensor_id;sensor_type;location;lat;lon;timestamp;P1;durP1;ratioP1;P2;durP2;ratioP2
18142;SDS011;9197;50.930;3.140;2022-08-23T00:01:30;3.13;;;2.75;;
18142;SDS011;9197;50.930;3.140;2022-08-23T00:03:59;5.03;;;2.83;;
18142;SDS011;9197;50.930;3.140;2022-08-23T00:06:27;4.57;;;3.00;;
18142;SDS011;9197;50.930;3.140;2022-08-23T00:08:54;4.68;;;2.78;;
18142;SDS011;9197;50.930;3.140;2022-08-23T00:11:29;5.55;;;2.70;;
18142;SDS011;9197;50.930;3.140;2022-08-23T00:13:58;3.15;;;2.85;;
18142;SDS011;9197;50.930;3.140;2022-08-23T00:16:25;3.00;;;2.60;;
18142;SDS011;9197;50.930;3.140;2022-08-23T00:18:53;4.82;;;2.65;;
18142;SDS011;9197;50.930;3.140;2022-08-23T00:21:21;6.07;;;2.45;;
18142;SDS011;9197;50.930;3.140;2022-08-23T00:23:49;5.32;;;2.53;;
18142;SDS011;9197;50.930;3.140;2022-08-23T00:26:16;3.40;;;2.50;;
18142;SDS011;9197;50.930;3.140;2022-08-23T00:28:44;6.82;;;3.17;;
18142;SDS011;9197;50.930;3.140;2022-08-23T00:31:11;4.63;;;2.77;;
18142;SDS011;9197;50.930;3.140;2022-08-23T00:33:39;6.32;;;3.30;;
18142;SDS011;9197;50.930;3.140;2022-08-23T00:36:06;4.37;;;3.13;;
18142;SDS011;9197;50.930;3.140;2022-08-23T00:38:34;3.90;;;3.40;;
18142;SDS011;9197;50.930;3.140;2022-08-23T00:41:02;5.53;;;2.87;;
18142;SDS011;9197;50.930;3.140;2022-08-23T00:43:30;5.53;;;3.43;;
18142;SDS011;9197;50.930;3.140;2022-08-23T00:46:27;5.50;;;3.00;;
18142;SDS011;9197;50.930;3.140;2022-08-23T00:49:27;5.20;;;2.73;;
18142;SDS011;9197;50.930;3.140;2022-08-23T00:51:57;5.93;;;3.07;;
18142;SDS011;9197;50.930;3.140;2022-08-23T00:54:28;5.37;;;3.37;;
18142;SDS011;9197;50.930;3.140;2022-08-23T00:56:57;5.57;;;3.23;;
18142;SDS011;9197;50.930;3.140;2022-08-23T00:59:24;6.40;;;2.60;;
18142;SDS011;9197;50.930;3.140;2022-08-23T01:01:52;3.90;;;3.13;;
18142;SDS011;9197;50.930;3.140;2022-08-23T01:04:19;5.97;;;2.70;;
18142;SDS011;9197;50.930;3.140;2022-08-23T01:06:47;4.70;;;3.42;;
18142;SDS011;9197;50.930;3.140;2022-08-23T01:09:17;3.77;;;3.30;;
18142;SDS011;9197;50.930;3.140;2022-08-23T01:11:47;3.57;;;2.83;;
18142;SDS011;9197;50.930;3.140;2022-08-23T01:14:16;5.73;;;3.30;;
18142;SDS011;9197;50.930;3.140;2022-08-23T01:16:44;5.78;;;3.40;;
18142;SDS011;9197;50.930;3.140;2022-08-23T01:19:15;7.10;;;2.90;;
18142;SDS011;9197;50.930;3.140;2022-08-23T01:21:44;4.47;;;3.30;;
18142;SDS011;9197;50.930;3.140;2022-08-23T01:24:15;3.20;;;2.90;;
18142;SDS011;9197;50.930;3.140;2022-08-23T01:26:42;6.33;;;3.73;;
18142;SDS011;9197;50.930;3.140;2022-08-23T01:29:10;5.13;;;3.43;;
18142;SDS011;9197;50.930;3.140;2022-08-23T01:31:37;7.23;;;3.77;;
18142;SDS011;9197;50.930;3.140;2022-08-23T01:34:05;7.73;;;4.17;;
18142;SDS011;9197;50.930;3.140;2022-08-23T01:36:33;5.73;;;3.33;;
18142;SDS011;9197;50.930;3.140;2022-08-23T01:39:00;6.60;;;3.87;;
18142;SDS011;9197;50.930;3.140;2022-08-23T01:41:29;5.80;;;4.20;;
18142;SDS011;9197;50.930;3.140;2022-08-23T01:43:56;7.87;;;4.13;;
18142;SDS011;9197;50.930;3.140;2022-08-23T01:46:24;8.13;;;4.37;;
18142;SDS011;9197;50.930;3.140;2022-08-23T01:48:52;4.20;;;3.77;;
18142;SDS011;9197;50.930;3.140;2022-08-23T01:51:20;5.90;;;4.17;;
18142;SDS011;9197;50.930;3.140;2022-08-23T01:53:48;6.60;;;4.47;;
18142;SDS011;9197;50.930;3.140;2022-08-23T01:56:15;6.90;;;5.10;;
18142;SDS011;9197;50.930;3.140;2022-08-23T01:58:45;5.47;;;4.67;;
18142;SDS011;9197;50.930;3.140;2022-08-23T02:01:13;5.87;;;4.70;;
18142;SDS011;9197;50.930;3.140;2022-08-23T02:03:40;5.70;;;4.87;;
18142;SDS011;9197;50.930;3.140;2022-08-23T02:06:07;6.30;;;4.20;;
18142;SDS011;9197;50.930;3.140;2022-08-23T02:08:34;7.13;;;4.73;;
18142;SDS011;9197;50.930;3.140;2022-08-23T02:11:20;4.80;;;4.00;;
18142;SDS011;9197;50.930;3.140;2022-08-23T02:13:49;4.30;;;3.90;;
18142;SDS011;9197;50.930;3.140;2022-08-23T02:16:21;6.50;;;4.83;;
18142;SDS011;9197;50.930;3.140;2022-08-23T02:18:48;7.83;;;5.03;;
18142;SDS011;9197;50.930;3.140;2022-08-23T02:21:16;9.23;;;4.80;;
18142;SDS011;9197;50.930;3.140;2022-08-23T02:23:43;6.33;;;5.30;;
18142;SDS011;9197;50.930;3.140;2022-08-23T02:26:10;8.30;;;4.73;;
18142;SDS011;9197;50.930;3.140;2022-08-23T02:28:38;11.63;;;5.37;;
18142;SDS011;9197;50.930;3.140;2022-08-23T02:31:06;5.97;;;5.37;;
18142;SDS011;9197;50.930;3.140;2022-08-23T02:33:33;8.73;;;5.47;;
18142;SDS011;9197;50.930;3.140;2022-08-23T02:36:00;6.70;;;4.70;;
18142;SDS011;9197;50.930;3.140;2022-08-23T02:38:28;8.27;;;4.63;;
18142;SDS011;9197;50.930;3.140;2022-08-23T02:40:55;5.67;;;4.57;;
18142;SDS011;9197;50.930;3.140;2022-08-23T02:43:22;9.03;;;5.43;;
18142;SDS011;9197;50.930;3.140;2022-08-23T02:45:49;5.40;;;4.90;;
18142;SDS011;9197;50.930;3.140;2022-08-23T02:48:18;5.90;;;4.87;;
18142;SDS011;9197;50.930;3.140;2022-08-23T02:50:46;8.67;;;5.53;;
18142;SDS011;9197;50.930;3.140;2022-08-23T02:53:13;9.27;;;4.83;;
18142;SDS011;9197;50.930;3.140;2022-08-23T02:55:43;8.13;;;5.37;;
18142;SDS011;9197;50.930;3.140;2022-08-23T02:58:10;9.90;;;4.67;;
18142;SDS011;9197;50.930;3.140;2022-08-23T03:00:37;7.20;;;5.53;;
18142;SDS011;9197;50.930;3.140;2022-08-23T03:03:05;9.10;;;5.60;;
18142;SDS011;9197;50.930;3.140;2022-08-23T03:05:33;6.17;;;4.60;;
18142;SDS011;9197;50.930;3.140;2022-08-23T03:08:01;7.97;;;5.07;;
18142;SDS011;9197;50.930;3.140;2022-08-23T03:10:28;8.15;;;4.65;;
18142;SDS011;9197;50.930;3.140;2022-08-23T03:12:55;5.73;;;4.33;;
18142;SDS011;9197;50.930;3.140;2022-08-23T03:15:22;7.43;;;5.20;;
18142;SDS011;9197;50.930;3.140;2022-08-23T03:17:49;5.33;;;4.77;;
18142;SDS011;9197;50.930;3.140;2022-08-23T03:20:17;6.93;;;5.03;;
18142;SDS011;9197;50.930;3.140;2022-08-23T03:22:45;7.57;;;4.40;;
18142;SDS011;9197;50.930;3.140;2022-08-23T03:25:12;8.45;;;5.70;;
18142;SDS011;9197;50.930;3.140;2022-08-23T03:27:39;7.65;;;4.65;;
18142;SDS011;9197;50.930;3.140;2022-08-23T03:30:07;7.93;;;5.57;;
18142;SDS011;9197;50.930;3.140;2022-08-23T03:32:34;8.48;;;5.47;;
18142;SDS011;9197;50.930;3.140;2022-08-23T03:35:02;8.95;;;5.95;;
18142;SDS011;9197;50.930;3.140;2022-08-23T03:37:29;7.47;;;5.60;;
18142;SDS011;9197;50.930;3.140;2022-08-23T03:39:57;8.35;;;5.40;;
18142;SDS011;9197;50.930;3.140;2022-08-23T03:42:25;9.02;;;5.20;;
18142;SDS011;9197;50.930;3.140;2022-08-23T03:44:52;7.57;;;5.45;;
18142;SDS011;9197;50.930;3.140;2022-08-23T03:47:19;8.50;;;6.30;;
18142;SDS011;9197;50.930;3.140;2022-08-23T03:49:47;7.30;;;4.95;;
18142;SDS011;9197;50.930;3.140;2022-08-23T03:52:14;9.65;;;5.47;;
18142;SDS011;9197;50.930;3.140;2022-08-23T03:54:41;9.30;;;5.15;;
18142;SDS011;9197;50.930;3.140;2022-08-23T03:57:09;9.00;;;5.30;;
18142;SDS011;9197;50.930;3.140;2022-08-23T03:59:38;7.57;;;5.57;;
18142;SDS011;9197;50.930;3.140;2022-08-23T04:02:07;10.48;;;6.40;;
18142;SDS011;9197;50.930;3.140;2022-08-23T04:04:34;9.87;;;5.57;;
18142;SDS011;9197;50.930;3.140;2022-08-23T04:07:02;10.73;;;5.27;;
18142;SDS011;9197;50.930;3.140;2022-08-23T04:09:29;10.07;;;6.07;;
18142;SDS011;9197;50.930;3.140;2022-08-23T04:11:56;5.43;;;4.93;;
18142;SDS011;9197;50.930;3.140;2022-08-23T04:14:25;11.43;;;5.83;;
18142;SDS011;9197;50.930;3.140;2022-08-23T04:16:52;9.07;;;6.70;;
18142;SDS011;9197;50.930;3.140;2022-08-23T04:19:19;10.80;;;6.13;;
18142;SDS011;9197;50.930;3.140;2022-08-23T04:21:47;8.03;;;6.13;;
18142;SDS011;9197;50.930;3.140;2022-08-23T04:24:15;13.38;;;7.00;;
18142;SDS011;9197;50.930;3.140;2022-08-23T04:26:43;12.77;;;6.87;;
18142;SDS011;9197;50.930;3.140;2022-08-23T04:29:10;7.00;;;5.73;;
18142;SDS011;9197;50.930;3.140;2022-08-23T04:31:42;6.87;;;5.53;;
18142;SDS011;9197;50.930;3.140;2022-08-23T04:34:09;9.17;;;5.77;;
18142;SDS011;9197;50.930;3.140;2022-08-23T04:36:38;7.47;;;6.53;;
18142;SDS011;9197;50.930;3.140;2022-08-23T04:39:06;8.37;;;6.17;;
18142;SDS011;9197;50.930;3.140;2022-08-23T04:41:33;8.50;;;6.77;;
18142;SDS011;9197;50.930;3.140;2022-08-23T04:44:18;11.23;;;7.50;;
18142;SDS011;9197;50.930;3.140;2022-08-23T04:46:47;8.30;;;6.87;;
18142;SDS011;9197;50.930;3.140;2022-08-23T04:49:14;9.83;;;6.60;;
18142;SDS011;9197;50.930;3.140;2022-08-23T04:51:41;11.67;;;7.37;;
18142;SDS011;9197;50.930;3.140;2022-08-23T04:54:08;9.85;;;7.38;;
18142;SDS011;9197;50.930;3.140;2022-08-23T04:56:36;9.37;;;8.17;;
18142;SDS011;9197;50.930;3.140;2022-08-23T04:59:04;12.50;;;8.10;;
18142;SDS011;9197;50.930;3.140;2022-08-23T05:01:31;9.23;;;7.13;;
18142;SDS011;9197;50.930;3.140;2022-08-23T05:04:00;12.87;;;7.47;;
18142;SDS011;9197;50.930;3.140;2022-08-23T05:06:27;13.40;;;8.73;;
18142;SDS011;9197;50.930;3.140;2022-08-23T05:08:55;14.07;;;8.93;;
18142;SDS011;9197;50.930;3.140;2022-08-23T05:11:23;14.07;;;8.70;;
18142;SDS011;9197;50.930;3.140;2022-08-23T05:13:50;13.80;;;8.67;;
18142;SDS011;9197;50.930;3.140;2022-08-23T05:16:17;9.80;;;8.17;;
18142;SDS011;9197;50.930;3.140;2022-08-23T05:18:44;17.80;;;9.33;;
18142;SDS011;9197;50.930;3.140;2022-08-23T05:21:15;14.70;;;9.07;;
18142;SDS011;9197;50.930;3.140;2022-08-23T05:23:42;12.43;;;8.47;;
18142;SDS011;9197;50.930;3.140;2022-08-23T05:26:10;16.80;;;9.30;;
18142;SDS011;9197;50.930;3.140;2022-08-23T05:28:39;12.55;;;9.30;;
18142;SDS011;9197;50.930;3.140;2022-08-23T05:31:07;16.75;;;8.95;;
18142;SDS011;9197;50.930;3.140;2022-08-23T05:33:35;9.83;;;8.83;;
18142;SDS011;9197;50.930;3.140;2022-08-23T05:36:03;9.53;;;7.97;;
18142;SDS011;9197;50.930;3.140;2022-08-23T05:38:32;14.23;;;9.40;;
18142;SDS011;9197;50.930;3.140;2022-08-23T05:40:59;11.47;;;9.10;;
18142;SDS011;9197;50.930;3.140;2022-08-23T05:43:27;12.83;;;8.70;;
18142;SDS011;9197;50.930;3.140;2022-08-23T05:45:58;13.68;;;8.63;;
18142;SDS011;9197;50.930;3.140;2022-08-23T05:48:26;14.93;;;9.00;;
18142;SDS011;9197;50.930;3.140;2022-08-23T05:50:53;14.88;;;8.90;;
18142;SDS011;9197;50.930;3.140;2022-08-23T05:53:20;14.07;;;8.38;;
18142;SDS011;9197;50.930;3.140;2022-08-23T05:55:49;11.40;;;9.53;;
18142;SDS011;9197;50.930;3.140;2022-08-23T05:58:16;10.97;;;8.93;;
18142;SDS011;9197;50.930;3.140;2022-08-23T06:00:43;11.75;;;9.18;;
18142;SDS011;9197;50.930;3.140;2022-08-23T06:03:11;12.90;;;9.30;;
18142;SDS011;9197;50.930;3.140;2022-08-23T06:05:38;14.90;;;10.00;;
18142;SDS011;9197;50.930;3.140;2022-08-23T06:08:06;17.48;;;10.52;;
18142;SDS011;9197;50.930;3.140;2022-08-23T06:10:34;17.70;;;9.45;;
18142;SDS011;9197;50.930;3.140;2022-08-23T06:13:03;14.30;;;9.88;;
18142;SDS011;9197;50.930;3.140;2022-08-23T06:15:31;17.50;;;9.80;;
18142;SDS011;9197;50.930;3.140;2022-08-23T06:17:58;13.98;;;9.55;;
18142;SDS011;9197;50.930;3.140;2022-08-23T06:20:26;12.68;;;9.60;;
18142;SDS011;9197;50.930;3.140;2022-08-23T06:22:53;11.65;;;9.13;;
18142;SDS011;9197;50.930;3.140;2022-08-23T06:25:20;13.05;;;9.00;;
18142;SDS011;9197;50.930;3.140;2022-08-23T06:27:47;10.10;;;8.57;;
18142;SDS011;9197;50.930;3.140;2022-08-23T06:30:16;15.98;;;10.23;;
18142;SDS011;9197;50.930;3.140;2022-08-23T06:32:43;11.48;;;9.43;;
18142;SDS011;9197;50.930;3.140;2022-08-23T06:35:10;18.27;;;9.13;;
18142;SDS011;9197;50.930;3.140;2022-08-23T06:37:38;14.07;;;8.77;;
18142;SDS011;9197;50.930;3.140;2022-08-23T06:40:05;9.77;;;7.80;;
18142;SDS011;9197;50.930;3.140;2022-08-23T06:42:33;9.57;;;8.50;;
18142;SDS011;9197;50.930;3.140;2022-08-23T06:45:00;11.75;;;7.70;;
18142;SDS011;9197;50.930;3.140;2022-08-23T06:47:29;11.45;;;7.78;;
18142;SDS011;9197;50.930;3.140;2022-08-23T06:49:56;10.00;;;6.72;;
18142;SDS011;9197;50.930;3.140;2022-08-23T06:52:24;7.07;;;6.07;;
18142;SDS011;9197;50.930;3.140;2022-08-23T06:54:52;7.80;;;5.30;;
18142;SDS011;9197;50.930;3.140;2022-08-23T06:57:19;10.15;;;5.40;;
18142;SDS011;9197;50.930;3.140;2022-08-23T06:59:47;7.88;;;5.40;;
18142;SDS011;9197;50.930;3.140;2022-08-23T07:02:14;5.90;;;4.90;;
18142;SDS011;9197;50.930;3.140;2022-08-23T07:04:43;6.22;;;5.07;;
18142;SDS011;9197;50.930;3.140;2022-08-23T07:07:10;5.07;;;4.57;;
18142;SDS011;9197;50.930;3.140;2022-08-23T07:09:38;7.88;;;4.72;;
18142;SDS011;9197;50.930;3.140;2022-08-23T07:12:06;5.53;;;4.30;;
18142;SDS011;9197;50.930;3.140;2022-08-23T07:14:35;5.82;;;4.55;;
18142;SDS011;9197;50.930;3.140;2022-08-23T07:17:03;6.57;;;4.18;;
18142;SDS011;9197;50.930;3.140;2022-08-23T07:19:31;5.88;;;4.93;;
18142;SDS011;9197;50.930;3.140;2022-08-23T07:22:01;4.05;;;3.75;;
18142;SDS011;9197;50.930;3.140;2022-08-23T07:24:29;5.25;;;4.50;;
18142;SDS011;9197;50.930;3.140;2022-08-23T07:26:57;5.05;;;3.97;;
18142;SDS011;9197;50.930;3.140;2022-08-23T07:29:25;8.02;;;5.10;;
18142;SDS011;9197;50.930;3.140;2022-08-23T07:31:54;4.82;;;4.10;;
18142;SDS011;9197;50.930;3.140;2022-08-23T07:34:22;5.10;;;4.25;;
18142;SDS011;9197;50.930;3.140;2022-08-23T07:36:50;6.63;;;4.60;;
18142;SDS011;9197;50.930;3.140;2022-08-23T07:39:19;4.53;;;4.07;;
18142;SDS011;9197;50.930;3.140;2022-08-23T07:41:47;6.63;;;3.92;;
18142;SDS011;9197;50.930;3.140;2022-08-23T07:44:16;3.30;;;3.10;;
18142;SDS011;9197;50.930;3.140;2022-08-23T07:46:44;4.30;;;3.65;;
18142;SDS011;9197;50.930;3.140;2022-08-23T07:49:12;3.97;;;3.50;;
18142;SDS011;9197;50.930;3.140;2022-08-23T07:51:40;4.65;;;3.60;;
18142;SDS011;9197;50.930;3.140;2022-08-23T07:54:08;3.63;;;3.05;;
18142;SDS011;9197;50.930;3.140;2022-08-23T07:56:37;3.35;;;2.85;;
18142;SDS011;9197;50.930;3.140;2022-08-23T07:59:05;3.53;;;2.90;;
18142;SDS011;9197;50.930;3.140;2022-08-23T08:01:32;4.10;;;2.83;;
18142;SDS011;9197;50.930;3.140;2022-08-23T08:04:00;3.70;;;2.88;;
18142;SDS011;9197;50.930;3.140;2022-08-23T08:06:29;3.55;;;3.00;;
18142;SDS011;9197;50.930;3.140;2022-08-23T08:08:57;4.78;;;3.20;;
18142;SDS011;9197;50.930;3.140;2022-08-23T08:11:25;3.10;;;2.83;;
18142;SDS011;9197;50.930;3.140;2022-08-23T08:13:54;3.53;;;2.30;;
18142;SDS011;9197;50.930;3.140;2022-08-23T08:16:23;3.08;;;2.30;;
18142;SDS011;9197;50.930;3.140;2022-08-23T08:18:52;3.08;;;2.70;;
18142;SDS011;9197;50.930;3.140;2022-08-23T08:21:19;3.15;;;2.38;;
18142;SDS011;9197;50.930;3.140;2022-08-23T08:23:46;3.92;;;2.63;;
18142;SDS011;9197;50.930;3.140;2022-08-23T08:26:14;5.47;;;3.10;;
18142;SDS011;9197;50.930;3.140;2022-08-23T08:28:41;3.05;;;2.53;;
18142;SDS011;9197;50.930;3.140;2022-08-23T08:31:10;3.50;;;2.60;;
18142;SDS011;9197;50.930;3.140;2022-08-23T08:33:38;2.75;;;2.47;;
18142;SDS011;9197;50.930;3.140;2022-08-23T08:36:05;3.08;;;2.88;;
18142;SDS011;9197;50.930;3.140;2022-08-23T08:38:33;5.65;;;2.75;;
18142;SDS011;9197;50.930;3.140;2022-08-23T08:41:03;4.88;;;2.65;;
18142;SDS011;9197;50.930;3.140;2022-08-23T08:43:34;3.47;;;2.75;;
18142;SDS011;9197;50.930;3.140;2022-08-23T08:46:04;4.05;;;3.30;;
18142;SDS011;9197;50.930;3.140;2022-08-23T08:48:38;8.75;;;3.30;;
18142;SDS011;9197;50.930;3.140;2022-08-23T08:51:09;4.72;;;3.53;;
18142;SDS011;9197;50.930;3.140;2022-08-23T08:53:40;5.78;;;4.40;;
18142;SDS011;9197;50.930;3.140;2022-08-23T08:56:13;4.88;;;4.50;;
18142;SDS011;9197;50.930;3.140;2022-08-23T08:58:42;6.05;;;4.57;;
18142;SDS011;9197;50.930;3.140;2022-08-23T09:01:11;6.97;;;4.47;;
18142;SDS011;9197;50.930;3.140;2022-08-23T09:03:42;3.75;;;3.45;;
18142;SDS011;9197;50.930;3.140;2022-08-23T09:06:12;6.55;;;3.28;;
18142;SDS011;9197;50.930;3.140;2022-08-23T09:08:43;3.10;;;2.80;;
18142;SDS011;9197;50.930;3.140;2022-08-23T09:11:14;4.57;;;4.10;;
18142;SDS011;9197;50.930;3.140;2022-08-23T09:13:55;4.82;;;3.67;;
18142;SDS011;9197;50.930;3.140;2022-08-23T09:16:29;4.75;;;3.65;;
18142;SDS011;9197;50.930;3.140;2022-08-23T09:19:02;3.17;;;2.88;;
18142;SDS011;9197;50.930;3.140;2022-08-23T09:21:30;4.45;;;2.90;;
18142;SDS011;9197;50.930;3.140;2022-08-23T09:23:59;4.03;;;3.10;;
18142;SDS011;9197;50.930;3.140;2022-08-23T09:26:27;2.50;;;2.30;;
18142;SDS011;9197;50.930;3.140;2022-08-23T09:28:57;2.15;;;1.50;;
18142;SDS011;9197;50.930;3.140;2022-08-23T09:31:34;1.63;;;1.52;;
18142;SDS011;9197;50.930;3.140;2022-08-23T09:34:03;1.95;;;1.60;;
18142;SDS011;9197;50.930;3.140;2022-08-23T09:36:31;1.65;;;1.55;;
18142;SDS011;9197;50.930;3.140;2022-08-23T09:39:00;2.33;;;1.70;;
18142;SDS011;9197;50.930;3.140;2022-08-23T09:41:30;3.28;;;3.03;;
18142;SDS011;9197;50.930;3.140;2022-08-23T09:44:01;2.63;;;2.42;;
18142;SDS011;9197;50.930;3.140;2022-08-23T09:46:30;1.63;;;1.00;;
18142;SDS011;9197;50.930;3.140;2022-08-23T09:48:57;0.90;;;0.90;;
18142;SDS011;9197;50.930;3.140;2022-08-23T09:51:28;1.65;;;0.95;;
18142;SDS011;9197;50.930;3.140;2022-08-23T09:54:04;1.85;;;1.40;;
18142;SDS011;9197;50.930;3.140;2022-08-23T09:56:33;1.73;;;1.60;;
18142;SDS011;9197;50.930;3.140;2022-08-23T09:59:01;1.10;;;1.00;;
18142;SDS011;9197;50.930;3.140;2022-08-23T10:01:29;3.63;;;2.20;;
18142;SDS011;9197;50.930;3.140;2022-08-23T10:04:09;1.30;;;1.20;;
18142;SDS011;9197;50.930;3.140;2022-08-23T10:06:39;1.08;;;1.08;;
18142;SDS011;9197;50.930;3.140;2022-08-23T10:09:07;1.45;;;1.10;;
18142;SDS011;9197;50.930;3.140;2022-08-23T10:11:36;1.30;;;1.20;;
18142;SDS011;9197;50.930;3.140;2022-08-23T10:14:04;1.48;;;1.17;;
18142;SDS011;9197;50.930;3.140;2022-08-23T10:16:34;1.30;;;1.20;;
18142;SDS011;9197;50.930;3.140;2022-08-23T10:19:05;2.17;;;1.40;;
18142;SDS011;9197;50.930;3.140;2022-08-23T10:21:37;1.52;;;1.42;;
18142;SDS011;9197;50.930;3.140;2022-08-23T10:24:17;2.25;;;1.17;;
18142;SDS011;9197;50.930;3.140;2022-08-23T10:26:50;1.17;;;1.08;;
18142;SDS011;9197;50.930;3.140;2022-08-23T10:29:21;1.15;;;1.00;;
18142;SDS011;9197;50.930;3.140;2022-08-23T10:32:12;0.93;;;0.80;;
18142;SDS011;9197;50.930;3.140;2022-08-23T10:34:41;1.42;;;1.27;;
18142;SDS011;9197;50.930;3.140;2022-08-23T10:37:14;1.30;;;1.20;;
18142;SDS011;9197;50.930;3.140;2022-08-23T10:39:47;2.13;;;1.10;;
18142;SDS011;9197;50.930;3.140;2022-08-23T10:42:20;1.60;;;1.50;;
18142;SDS011;9197;50.930;3.140;2022-08-23T10:44:49;1.40;;;1.30;;
18142;SDS011;9197;50.930;3.140;2022-08-23T10:47:26;1.15;;;1.05;;
18142;SDS011;9197;50.930;3.140;2022-08-23T10:49:55;1.20;;;1.10;;
18142;SDS011;9197;50.930;3.140;2022-08-23T10:52:27;1.80;;;1.70;;
18142;SDS011;9197;50.930;3.140;2022-08-23T10:54:57;1.67;;;1.58;;
18142;SDS011;9197;50.930;3.140;2022-08-23T10:57:31;1.98;;;1.88;;
18142;SDS011;9197;50.930;3.140;2022-08-23T11:00:00;1.75;;;1.65;;
18142;SDS011;9197;50.930;3.140;2022-08-23T11:02:28;1.63;;;1.52;;
18142;SDS011;9197;50.930;3.140;2022-08-23T11:05:00;1.65;;;1.55;;
18142;SDS011;9197;50.930;3.140;2022-08-23T11:07:30;1.83;;;1.65;;
18142;SDS011;9197;50.930;3.140;2022-08-23T11:10:08;2.05;;;1.90;;
18142;SDS011;9197;50.930;3.140;2022-08-23T11:12:35;1.58;;;1.45;;
18142;SDS011;9197;50.930;3.140;2022-08-23T11:15:20;1.60;;;1.50;;
18142;SDS011;9197;50.930;3.140;2022-08-23T11:17:54;2.20;;;1.70;;
18142;SDS011;9197;50.930;3.140;2022-08-23T11:23:11;2.72;;;1.60;;
18142;SDS011;9197;50.930;3.140;2022-08-23T11:25:41;2.10;;;1.90;;
18142;SDS011;9197;50.930;3.140;2022-08-23T11:30:56;2.25;;;1.63;;
18142;SDS011;9197;50.930;3.140;2022-08-23T11:33:27;1.45;;;1.35;;
18142;SDS011;9197;50.930;3.140;2022-08-23T11:36:13;2.00;;;1.90;;
18142;SDS011;9197;50.930;3.140;2022-08-23T11:41:30;2.67;;;1.90;;
18142;SDS011;9197;50.930;3.140;2022-08-23T11:46:49;1.90;;;1.58;;
18142;SDS011;9197;50.930;3.140;2022-08-23T11:49:39;2.08;;;1.98;;
18142;SDS011;9197;50.930;3.140;2022-08-23T11:52:10;1.90;;;1.80;;
18142;SDS011;9197;50.930;3.140;2022-08-23T11:54:55;2.28;;;1.73;;
18142;SDS011;9197;50.930;3.140;2022-08-23T11:57:32;2.72;;;1.98;;
18142;SDS011;9197;50.930;3.140;2022-08-23T12:00:06;3.13;;;1.70;;
18142;SDS011;9197;50.930;3.140;2022-08-23T12:02:51;2.15;;;1.95;;
18142;SDS011;9197;50.930;3.140;2022-08-23T12:05:27;1.30;;;1.30;;
18142;SDS011;9197;50.930;3.140;2022-08-23T12:10:58;1.77;;;1.67;;
18142;SDS011;9197;50.930;3.140;2022-08-23T12:13:43;1.50;;;1.40;;
18142;SDS011;9197;50.930;3.140;2022-08-23T12:16:24;1.33;;;1.30;;
18142;SDS011;9197;50.930;3.140;2022-08-23T12:18:53;1.27;;;1.20;;
18142;SDS011;9197;50.930;3.140;2022-08-23T12:21:22;0.93;;;0.93;;
18142;SDS011;9197;50.930;3.140;2022-08-23T12:23:50;2.25;;;1.10;;
18142;SDS011;9197;50.930;3.140;2022-08-23T12:26:22;3.75;;;1.30;;
18142;SDS011;9197;50.930;3.140;2022-08-23T12:28:53;2.97;;;1.00;;
18142;SDS011;9197;50.930;3.140;2022-08-23T12:31:24;0.70;;;0.70;;
18142;SDS011;9197;50.930;3.140;2022-08-23T12:34:02;1.83;;;0.80;;
18142;SDS011;9197;50.930;3.140;2022-08-23T12:36:34;1.20;;;1.00;;
18142;SDS011;9197;50.930;3.140;2022-08-23T12:39:05;1.77;;;1.10;;
18142;SDS011;9197;50.930;3.140;2022-08-23T12:41:34;1.63;;;1.23;;
18142;SDS011;9197;50.930;3.140;2022-08-23T12:44:17;0.75;;;0.75;;
18142;SDS011;9197;50.930;3.140;2022-08-23T12:46:45;1.35;;;1.10;;
18142;SDS011;9197;50.930;3.140;2022-08-23T12:49:21;2.38;;;0.85;;
18142;SDS011;9197;50.930;3.140;2022-08-23T12:51:49;1.10;;;1.00;;
18142;SDS011;9197;50.930;3.140;2022-08-23T12:54:18;1.35;;;0.85;;
18142;SDS011;9197;50.930;3.140;2022-08-23T12:56:47;0.85;;;0.85;;
18142;SDS011;9197;50.930;3.140;2022-08-23T12:59:29;0.95;;;0.70;;
18142;SDS011;9197;50.930;3.140;2022-08-23T13:01:56;1.15;;;0.90;;
18142;SDS011;9197;50.930;3.140;2022-08-23T13:04:24;1.00;;;0.90;;
18142;SDS011;9197;50.930;3.140;2022-08-23T13:06:53;1.17;;;1.08;;
18142;SDS011;9197;50.930;3.140;2022-08-23T13:09:21;0.70;;;0.70;;
18142;SDS011;9197;50.930;3.140;2022-08-23T13:11:50;0.60;;;0.55;;
18142;SDS011;9197;50.930;3.140;2022-08-23T13:14:21;1.45;;;0.73;;
18142;SDS011;9197;50.930;3.140;2022-08-23T13:16:49;1.30;;;0.70;;
18142;SDS011;9197;50.930;3.140;2022-08-23T13:19:18;0.73;;;0.73;;
18142;SDS011;9197;50.930;3.140;2022-08-23T13:21:46;1.25;;;0.57;;
18142;SDS011;9197;50.930;3.140;2022-08-23T13:24:29;3.10;;;0.80;;
18142;SDS011;9197;50.930;3.140;2022-08-23T13:27:08;0.70;;;0.52;;
18142;SDS011;9197;50.930;3.140;2022-08-23T13:29:46;0.90;;;0.80;;
18142;SDS011;9197;50.930;3.140;2022-08-23T13:32:24;0.73;;;0.52;;
18142;SDS011;9197;50.930;3.140;2022-08-23T13:34:51;1.00;;;1.00;;
18142;SDS011;9197;50.930;3.140;2022-08-23T13:37:21;2.15;;;0.60;;
18142;SDS011;9197;50.930;3.140;2022-08-23T13:39:51;2.08;;;0.70;;
18142;SDS011;9197;50.930;3.140;2022-08-23T13:42:31;0.52;;;0.52;;
18142;SDS011;9197;50.930;3.140;2022-08-23T13:45:05;0.63;;;0.50;;
18142;SDS011;9197;50.930;3.140;2022-08-23T13:47:34;0.43;;;0.43;;
18142;SDS011;9197;50.930;3.140;2022-08-23T13:50:01;0.50;;;0.50;;
18142;SDS011;9197;50.930;3.140;2022-08-23T13:52:29;2.00;;;0.70;;
18142;SDS011;9197;50.930;3.140;2022-08-23T13:54:57;1.13;;;0.60;;
18142;SDS011;9197;50.930;3.140;2022-08-23T13:57:24;2.70;;;0.60;;
18142;SDS011;9197;50.930;3.140;2022-08-23T13:59:52;0.55;;;0.55;;
18142;SDS011;9197;50.930;3.140;2022-08-23T14:02:20;0.98;;;0.85;;
18142;SDS011;9197;50.930;3.140;2022-08-23T14:04:49;0.68;;;0.65;;
18142;SDS011;9197;50.930;3.140;2022-08-23T14:07:17;0.52;;;0.52;;
18142;SDS011;9197;50.930;3.140;2022-08-23T14:09:44;1.67;;;0.70;;
18142;SDS011;9197;50.930;3.140;2022-08-23T14:12:12;2.85;;;0.60;;
18142;SDS011;9197;50.930;3.140;2022-08-23T14:14:40;3.30;;;0.90;;
18142;SDS011;9197;50.930;3.140;2022-08-23T14:17:07;1.05;;;0.60;;
18142;SDS011;9197;50.930;3.140;2022-08-23T14:19:35;0.40;;;0.40;;
18142;SDS011;9197;50.930;3.140;2022-08-23T14:22:04;0.93;;;0.50;;
18142;SDS011;9197;50.930;3.140;2022-08-23T14:24:31;0.75;;;0.60;;
18142;SDS011;9197;50.930;3.140;2022-08-23T14:26:58;0.40;;;0.40;;
18142;SDS011;9197;50.930;3.140;2022-08-23T14:29:26;0.40;;;0.40;;
18142;SDS011;9197;50.930;3.140;2022-08-23T14:31:54;0.82;;;0.47;;
18142;SDS011;9197;50.930;3.140;2022-08-23T14:34:22;0.60;;;0.60;;
18142;SDS011;9197;50.930;3.140;2022-08-23T14:36:49;0.43;;;0.30;;
18142;SDS011;9197;50.930;3.140;2022-08-23T14:39:19;0.50;;;0.50;;
18142;SDS011;9197;50.930;3.140;2022-08-23T14:41:46;0.63;;;0.60;;
18142;SDS011;9197;50.930;3.140;2022-08-23T14:44:15;0.80;;;0.80;;
18142;SDS011;9197;50.930;3.140;2022-08-23T14:46:42;1.45;;;0.57;;
18142;SDS011;9197;50.930;3.140;2022-08-23T14:49:09;1.67;;;0.98;;
18142;SDS011;9197;50.930;3.140;2022-08-23T14:51:38;0.57;;;0.50;;
18142;SDS011;9197;50.930;3.140;2022-08-23T14:54:06;2.08;;;0.50;;
18142;SDS011;9197;50.930;3.140;2022-08-23T14:56:34;0.70;;;0.57;;
18142;SDS011;9197;50.930;3.140;2022-08-23T14:59:02;0.60;;;0.60;;
18142;SDS011;9197;50.930;3.140;2022-08-23T15:01:29;1.63;;;0.50;;
18142;SDS011;9197;50.930;3.140;2022-08-23T15:03:56;1.33;;;1.13;;
18142;SDS011;9197;50.930;3.140;2022-08-23T15:06:25;0.50;;;0.40;;
18142;SDS011;9197;50.930;3.140;2022-08-23T15:08:53;1.15;;;0.57;;
18142;SDS011;9197;50.930;3.140;2022-08-23T15:11:20;0.90;;;0.80;;
18142;SDS011;9197;50.930;3.140;2022-08-23T15:13:49;0.30;;;0.30;;
18142;SDS011;9197;50.930;3.140;2022-08-23T15:16:17;0.55;;;0.50;;
18142;SDS011;9197;50.930;3.140;2022-08-23T15:18:45;1.05;;;0.43;;
18142;SDS011;9197;50.930;3.140;2022-08-23T15:21:13;1.35;;;0.45;;
18142;SDS011;9197;50.930;3.140;2022-08-23T15:23:40;0.55;;;0.32;;
18142;SDS011;9197;50.930;3.140;2022-08-23T15:26:08;2.30;;;0.55;;
18142;SDS011;9197;50.930;3.140;2022-08-23T15:28:36;0.63;;;0.63;;